Time;durP1;ratioP1;P1;durP2;ratioP2;P2;SDS_P1;SDS_P2;PMS_P1;PMS_P2;Temp;Humidity;BMP_temperature;BMP_pressure;BME280_temperature;BME280_humidity;BME280_pressure;Samples;Min_cycle;Max_cycle;Signal;HPM_P1;HPM_P2
2022/10/15 00:00:06;;;;;;;76.82;13.55;;;14.70;99.90;;;;;;5035704;28;20029;-75
2022/10/15 00:02:31;;;;;;;36.28;14.75;;;14.70;99.90;;;;;;5025174;28;20708;-77
2022/10/15 00:04:59;;;;;;;111.78;14.43;;;14.60;99.90;;;;;;5027972;28;20061;-76
2022/10/15 00:07:29;;;;;;;143.52;15.30;;;14.60;99.90;;;;;;5034141;28;20048;-77
2022/10/15 00:09:55;;;;;;;181.05;14.93;;;14.60;99.90;;;;;;5035107;28;20391;-77
2022/10/15 00:12:20;;;;;;;49.47;13.10;;;14.60;99.90;;;;;;5034738;28;20128;-76
2022/10/15 00:14:46;;;;;;;147.10;14.27;;;14.50;99.90;;;;;;5036080;28;20040;-77
2022/10/15 00:17:11;;;;;;;56.20;13.10;;;14.50;99.90;;;;;;5033403;28;20043;-77
2022/10/15 00:19:39;;;;;;;80.55;13.45;;;14.40;99.90;;;;;;5036902;28;20508;-74
2022/10/15 00:22:05;;;;;;;94.93;13.50;;;14.50;99.90;;;;;;5034916;28;20513;-77
2022/10/15 00:24:30;;;;;;;40.70;14.23;;;14.50;99.90;;;;;;5035436;28;20120;-77
2022/10/15 00:26:56;;;;;;;115.10;17.00;;;14.50;99.90;;;;;;5033296;28;20066;-76
2022/10/15 00:29:21;;;;;;;256.58;18.25;;;14.60;99.90;;;;;;5029348;28;20034;-76
2022/10/15 00:31:47;;;;;;;119.40;15.13;;;14.60;99.90;;;;;;5035013;28;20021;-76
2022/10/15 00:34:12;;;;;;;101.60;15.07;;;14.60;99.90;;;;;;5036875;28;20043;-76
2022/10/15 00:36:38;;;;;;;141.00;15.18;;;14.70;99.90;;;;;;5037418;28;20088;-75
2022/10/15 00:39:06;;;;;;;146.88;15.27;;;14.70;99.90;;;;;;5031740;28;20041;-77
2022/10/15 00:41:36;;;;;;;163.52;15.57;;;14.70;99.90;;;;;;5032869;28;20725;-75
2022/10/15 00:44:25;;;;;;;119.85;14.73;;;14.70;99.90;;;;;;5023940;28;20438;-76
2022/10/15 00:47:11;;;;;;;121.88;13.98;;;14.60;99.90;;;;;;5029030;28;20496;-77
2022/10/15 00:49:58;;;;;;;112.15;12.10;;;14.50;99.90;;;;;;5034653;28;20100;-77
2022/10/15 00:52:44;;;;;;;254.30;17.00;;;14.40;99.90;;;;;;5033761;28;20018;-76
2022/10/15 00:55:23;;;;;;;91.28;11.77;;;14.40;99.90;;;;;;5028791;28;20029;-77
2022/10/15 00:57:52;;;;;;;78.07;12.15;;;14.20;99.90;;;;;;5030985;28;20140;-76
2022/10/15 01:00:19;;;;;;;75.57;11.68;;;14.20;99.90;;;;;;5029429;28;20021;-76
2022/10/15 01:02:49;;;;;;;81.32;11.88;;;14.10;99.90;;;;;;5032753;28;20018;-77
2022/10/15 01:05:20;;;;;;;90.45;12.13;;;14.10;99.90;;;;;;5035171;28;20021;-76
2022/10/15 01:07:46;;;;;;;59.95;11.55;;;14.10;99.90;;;;;;5036748;28;20139;-76
2022/10/15 01:10:13;;;;;;;79.95;12.13;;;14.00;99.90;;;;;;5037061;28;20438;-74
2022/10/15 01:12:57;;;;;;;82.97;12.57;;;14.00;99.90;;;;;;5035059;28;20025;-76
2022/10/15 01:15:41;;;;;;;97.80;12.13;;;14.00;99.90;;;;;;5032724;28;20377;-77
2022/10/15 01:18:32;;;;;;;99.32;11.52;;;13.90;99.90;;;;;;5024600;28;20660;-76
2022/10/15 01:21:20;;;;;;;65.20;10.85;;;13.90;99.90;;;;;;5030210;28;20025;-76
2022/10/15 01:24:13;;;;;;;109.30;12.60;;;13.90;99.90;;;;;;5029008;28;20373;-77
2022/10/15 01:26:55;;;;;;;61.58;10.65;;;13.90;99.90;;;;;;5036874;28;20025;-76
2022/10/15 01:29:39;;;;;;;128.77;13.73;;;13.90;99.90;;;;;;5032986;28;20037;-76
2022/10/15 01:32:18;;;;;;;63.88;11.70;;;13.80;99.90;;;;;;5034857;28;20032;-76
2022/10/15 01:35:02;;;;;;;58.90;11.73;;;13.80;99.90;;;;;;5032476;28;20033;-76
2022/10/15 01:37:40;;;;;;;45.00;11.45;;;13.80;99.90;;;;;;5035007;28;20025;-76
2022/10/15 01:40:22;;;;;;;45.92;12.05;;;13.70;99.90;;;;;;5031472;28;20018;-76
2022/10/15 01:42:56;;;;;;;38.50;12.25;;;13.70;99.90;;;;;;5031290;28;20025;-76
2022/10/15 01:45:38;;;;;;;36.72;12.15;;;13.70;99.90;;;;;;5033885;28;20044;-77
2022/10/15 01:48:17;;;;;;;40.05;12.02;;;13.80;99.90;;;;;;5016872;28;20423;-77
2022/10/15 01:50:47;;;;;;;35.28;11.68;;;13.70;99.90;;;;;;5028818;28;20116;-75
2022/10/15 01:53:25;;;;;;;34.08;12.13;;;13.70;99.90;;;;;;5033827;28;20465;-76
2022/10/15 01:55:58;;;;;;;60.75;12.57;;;13.80;99.90;;;;;;5035130;28;20033;-74
2022/10/15 01:58:27;;;;;;;63.55;13.07;;;13.70;99.90;;;;;;5035676;28;20025;-76
2022/10/15 02:00:54;;;;;;;33.28;12.35;;;13.80;99.90;;;;;;5029598;28;20025;-77
2022/10/15 02:03:20;;;;;;;30.02;11.95;;;13.80;99.90;;;;;;5033536;28;20036;-77
2022/10/15 02:06:19;;;;;;;26.55;12.15;;;13.80;99.90;;;;;;5032353;28;20028;-76
2022/10/15 02:09:01;;;;;;;37.80;13.40;;;13.80;99.90;;;;;;5020908;28;20383;-76
2022/10/15 02:11:36;;;;;;;28.00;11.90;;;13.80;99.90;;;;;;5027965;28;20018;-77
2022/10/15 02:14:14;;;;;;;78.40;12.52;;;13.80;99.90;;;;;;5020713;28;20037;-77
2022/10/15 02:17:03;;;;;;;31.90;10.93;;;13.90;99.90;;;;;;5031485;28;20438;-76
2022/10/15 02:19:54;;;;;;;49.28;11.82;;;13.80;99.90;;;;;;5036219;28;20025;-76
2022/10/15 02:22:22;;;;;;;48.60;12.05;;;13.80;99.90;;;;;;5029047;28;20098;-77
2022/10/15 02:24:51;;;;;;;30.38;11.25;;;13.80;99.90;;;;;;5031343;28;20076;-76
2022/10/15 02:27:21;;;;;;;32.92;11.18;;;13.70;99.90;;;;;;5040435;28;20036;-76
2022/10/15 02:29:50;;;;;;;60.28;12.40;;;13.70;99.90;;;;;;5025507;28;20033;-77
2022/10/15 02:32:18;;;;;;;60.15;12.32;;;13.70;99.90;;;;;;5029895;28;20033;-77
2022/10/15 02:34:48;;;;;;;63.13;12.52;;;13.70;99.90;;;;;;5032980;28;20446;-74
2022/10/15 02:37:16;;;;;;;36.75;12.50;;;13.70;99.90;;;;;;5023531;28;20164;-77
2022/10/15 02:39:42;;;;;;;44.70;12.20;;;13.70;99.90;;;;;;5028408;28;20030;-77
2022/10/15 02:42:11;;;;;;;57.40;12.52;;;13.70;99.90;;;;;;5030930;28;20027;-76
2022/10/15 02:44:37;;;;;;;86.43;12.48;;;13.70;99.90;;;;;;5030856;28;20371;-77
2022/10/15 02:47:03;;;;;;;35.10;12.00;;;13.70;99.90;;;;;;5031096;28;20447;-77
2022/10/15 02:49:28;;;;;;;31.58;12.27;;;13.70;99.90;;;;;;5040794;28;20040;-76
2022/10/15 02:51:55;;;;;;;36.13;13.25;;;13.70;99.90;;;;;;5040446;28;20021;-77
2022/10/15 02:54:23;;;;;;;57.55;13.05;;;13.70;99.90;;;;;;5030765;28;20852;-77
2022/10/15 02:56:51;;;;;;;19.63;12.88;;;13.80;99.90;;;;;;5035841;28;20033;-76
2022/10/15 02:59:18;;;;;;;21.27;12.65;;;13.80;99.90;;;;;;5032645;28;20036;-75
2022/10/15 03:01:44;;;;;;;42.55;12.35;;;13.80;99.90;;;;;;5027198;28;20561;-77
2022/10/15 03:04:10;;;;;;;15.70;12.18;;;13.80;99.90;;;;;;5023032;28;20108;-76
2022/10/15 03:06:35;;;;;;;20.70;13.20;;;13.80;99.90;;;;;;5026676;28;20017;-77
2022/10/15 03:09:03;;;;;;;22.50;13.30;;;13.80;99.90;;;;;;5033769;28;20048;-76
2022/10/15 03:11:29;;;;;;;19.77;12.15;;;13.80;99.90;;;;;;5035415;28;20104;-76
2022/10/15 03:13:57;;;;;;;21.63;12.60;;;13.80;99.90;;;;;;5034040;28;20137;-77
2022/10/15 03:16:22;;;;;;;21.15;14.68;;;13.90;99.90;;;;;;5032889;28;20499;-76
2022/10/15 03:18:48;;;;;;;19.77;12.98;;;13.80;99.90;;;;;;5031377;28;20534;-76
2022/10/15 03:21:16;;;;;;;19.92;13.93;;;13.80;99.90;;;;;;5026647;28;20093;-77
2022/10/15 03:23:41;;;;;;;20.95;14.32;;;13.70;99.90;;;;;;5030552;28;20030;-76
2022/10/15 03:26:09;;;;;;;21.75;15.07;;;13.80;99.90;;;;;;5022185;28;20801;-76
2022/10/15 03:28:35;;;;;;;20.33;13.77;;;13.80;99.90;;;;;;5033386;28;20081;-77
2022/10/15 03:31:03;;;;;;;23.98;15.60;;;13.80;99.90;;;;;;5033852;28;20104;-76
2022/10/15 03:33:31;;;;;;;22.35;14.32;;;13.80;99.90;;;;;;5041886;28;20095;-74
2022/10/15 03:35:56;;;;;;;24.42;16.00;;;13.90;99.90;;;;;;5035166;28;20037;-77
2022/10/15 03:38:22;;;;;;;22.17;14.80;;;13.90;99.90;;;;;;5038120;28;20035;-76
2022/10/15 03:40:48;;;;;;;22.70;14.85;;;13.90;99.90;;;;;;5038052;28;20025;-75
2022/10/15 03:43:16;;;;;;;23.77;14.43;;;14.00;99.90;;;;;;5036682;28;20091;-77
2022/10/15 03:45:43;;;;;;;29.60;15.40;;;13.90;99.90;;;;;;5032691;28;20132;-77
2022/10/15 03:48:11;;;;;;;28.83;15.20;;;14.00;99.90;;;;;;5027403;28;20105;-76
2022/10/15 03:50:39;;;;;;;26.77;16.35;;;13.90;99.90;;;;;;5034822;28;20033;-76
2022/10/15 03:53:05;;;;;;;22.52;14.55;;;14.00;99.90;;;;;;5027970;28;20322;-76
2022/10/15 03:55:31;;;;;;;26.75;17.08;;;14.00;99.90;;;;;;5036312;28;20100;-77
2022/10/15 03:57:57;;;;;;;24.48;15.48;;;14.10;99.90;;;;;;5032254;28;20084;-77
2022/10/15 04:00:23;;;;;;;29.83;16.45;;;14.10;99.90;;;;;;5038667;28;20521;-76
2022/10/15 04:02:48;;;;;;;29.88;18.02;;;14.20;99.90;;;;;;5034475;28;20521;-76
2022/10/15 04:05:14;;;;;;;27.73;18.23;;;14.20;99.90;;;;;;5038841;28;20030;-76
2022/10/15 04:07:40;;;;;;;32.35;18.77;;;14.20;99.90;;;;;;5035058;28;20040;-75
2022/10/15 04:10:06;;;;;;;33.35;20.13;;;14.20;99.90;;;;;;5031647;28;20022;-76
2022/10/15 04:12:32;;;;;;;30.45;20.25;;;14.20;99.90;;;;;;5035540;28;20434;-76
2022/10/15 04:14:57;;;;;;;35.60;19.63;;;14.20;99.90;;;;;;5025039;28;20146;-77
2022/10/15 04:17:23;;;;;;;41.03;21.00;;;14.20;99.90;;;;;;5029817;28;20406;-76
2022/10/15 04:19:51;;;;;;;34.97;20.13;;;14.20;99.90;;;;;;5031245;28;20040;-76
2022/10/15 04:22:20;;;;;;;38.88;20.70;;;14.20;99.90;;;;;;5029125;28;20034;-76
2022/10/15 04:24:45;;;;;;;33.45;19.75;;;14.20;99.90;;;;;;5032682;28;20020;-77
2022/10/15 04:27:14;;;;;;;37.45;20.70;;;14.20;99.90;;;;;;5035220;28;20469;-76
2022/10/15 04:29:39;;;;;;;32.80;19.92;;;14.20;99.90;;;;;;5036529;28;20029;-75
2022/10/15 04:32:12;;;;;;;41.83;21.45;;;14.30;99.90;;;;;;5030315;28;20078;-77
2022/10/15 04:34:40;;;;;;;34.20;20.92;;;14.20;99.90;;;;;;5032893;28;20493;-76
2022/10/15 04:37:08;;;;;;;35.08;21.35;;;14.20;99.90;;;;;;5025916;28;20168;-74
2022/10/15 04:39:34;;;;;;;32.67;20.92;;;14.20;99.90;;;;;;5027968;28;20039;-77
2022/10/15 04:42:04;;;;;;;33.10;21.02;;;14.20;99.90;;;;;;5032019;28;20052;-75
2022/10/15 04:44:32;;;;;;;36.80;21.48;;;14.20;99.90;;;;;;5036478;28;20029;-75
2022/10/15 04:46:58;;;;;;;35.83;21.17;;;14.20;99.90;;;;;;5027141;28;20025;-75
2022/10/15 04:49:26;;;;;;;34.75;21.63;;;14.20;99.90;;;;;;5035160;28;20025;-75
2022/10/15 04:51:51;;;;;;;32.10;20.15;;;14.30;99.90;;;;;;5039176;28;20038;-77
2022/10/15 04:54:20;;;;;;;33.50;21.35;;;14.30;99.90;;;;;;5034804;28;20030;-77
2022/10/15 04:56:45;;;;;;;39.58;22.05;;;14.30;99.90;;;;;;5032834;28;20065;-77
2022/10/15 04:59:13;;;;;;;33.78;21.50;;;14.40;99.90;;;;;;5035255;28;20049;-76
2022/10/15 05:01:41;;;;;;;37.47;21.10;;;14.30;99.90;;;;;;5032041;28;20085;-75
2022/10/15 05:04:10;;;;;;;33.78;21.13;;;14.40;99.90;;;;;;5027012;28;20029;-77
2022/10/15 05:06:36;;;;;;;32.70;20.13;;;14.40;99.90;;;;;;5028483;28;20022;-77
2022/10/15 05:09:02;;;;;;;31.80;21.15;;;14.40;99.90;;;;;;5027630;28;20029;-77
2022/10/15 05:11:28;;;;;;;37.05;21.45;;;14.40;99.90;;;;;;5024167;28;20145;-76
2022/10/15 05:13:55;;;;;;;36.90;21.63;;;14.40;99.90;;;;;;5025445;28;119201;-76
2022/10/15 05:16:24;;;;;;;36.42;22.63;;;14.40;99.90;;;;;;5024183;28;20101;-77
2022/10/15 05:18:54;;;;;;;29.92;20.33;;;14.40;99.90;;;;;;5034655;28;20095;-74
2022/10/15 05:21:19;;;;;;;34.47;22.15;;;14.40;99.90;;;;;;5032928;28;20025;-76
2022/10/15 05:23:49;;;;;;;33.80;22.02;;;14.40;99.90;;;;;;5033927;28;20633;-76
2022/10/15 05:26:17;;;;;;;36.95;21.17;;;14.40;99.90;;;;;;5037876;28;20025;-76
2022/10/15 05:28:42;;;;;;;31.65;20.90;;;14.40;99.90;;;;;;5031056;28;20431;-77
2022/10/15 05:31:11;;;;;;;35.28;22.02;;;14.50;99.90;;;;;;5025837;28;20111;-77
2022/10/15 05:33:37;;;;;;;34.88;20.95;;;14.40;99.90;;;;;;5034838;28;20059;-77
2022/10/15 05:36:32;;;;;;;32.03;20.65;;;14.40;99.90;;;;;;5032910;28;20029;-77
2022/10/15 05:39:02;;;;;;;32.72;20.23;;;14.40;99.90;;;;;;5039325;28;20435;-77
2022/10/15 05:41:30;;;;;;;31.95;20.92;;;14.40;99.90;;;;;;5034828;28;20082;-77
2022/10/15 05:43:57;;;;;;;34.42;19.55;;;14.50;99.90;;;;;;5030613;28;20364;-77
2022/10/15 05:46:23;;;;;;;34.75;20.83;;;14.50;99.90;;;;;;5035971;28;20191;-77
2022/10/15 05:48:56;;;;;;;32.08;20.30;;;14.50;99.90;;;;;;5035930;28;20071;-74
2022/10/15 05:51:24;;;;;;;32.20;20.35;;;14.50;99.90;;;;;;5036473;28;20472;-78
2022/10/15 05:53:54;;;;;;;32.45;19.95;;;14.40;99.90;;;;;;5030561;28;20044;-77
2022/10/15 05:56:19;;;;;;;34.38;20.13;;;14.40;99.90;;;;;;5026326;28;20032;-78
2022/10/15 05:58:45;;;;;;;33.05;20.73;;;14.40;99.90;;;;;;5026347;28;20037;-76
2022/10/15 06:01:12;;;;;;;37.65;20.85;;;14.40;99.90;;;;;;5025641;28;20028;-77
2022/10/15 06:03:41;;;;;;;34.65;20.05;;;14.40;99.90;;;;;;5030247;28;20044;-77
2022/10/15 06:06:21;;;;;;;36.63;20.73;;;14.40;99.90;;;;;;5036290;28;20040;-78
2022/10/15 06:08:48;;;;;;;32.33;19.40;;;14.40;99.90;;;;;;5037031;28;20025;-78
2022/10/15 06:11:15;;;;;;;31.23;20.65;;;14.40;99.90;;;;;;5021895;28;20025;-75
2022/10/15 06:13:44;;;;;;;35.08;21.38;;;14.50;99.90;;;;;;5033262;28;20112;-78
2022/10/15 06:16:13;;;;;;;33.85;20.20;;;14.40;99.90;;;;;;5038023;28;20030;-77
2022/10/15 06:18:39;;;;;;;34.33;19.67;;;14.50;99.90;;;;;;5029381;28;20284;-77
2022/10/15 06:21:06;;;;;;;37.17;21.70;;;14.50;99.90;;;;;;5026946;28;20029;-78
2022/10/15 06:23:33;;;;;;;32.30;20.98;;;14.50;99.90;;;;;;5033052;28;20030;-77
2022/10/15 06:26:04;;;;;;;32.78;20.38;;;14.60;99.90;;;;;;5032462;28;20456;-77
2022/10/15 06:28:29;;;;;;;30.17;19.27;;;14.60;99.90;;;;;;5030451;28;20025;-75
2022/10/15 06:30:58;;;;;;;33.70;20.77;;;14.50;99.90;;;;;;5034939;28;20028;-77
2022/10/15 06:33:24;;;;;;;38.22;21.00;;;14.50;99.90;;;;;;5040233;28;20025;-76
2022/10/15 06:35:50;;;;;;;33.75;21.60;;;14.60;99.90;;;;;;5035172;28;20031;-78
2022/10/15 06:38:16;;;;;;;37.83;22.02;;;14.70;99.90;;;;;;5034686;28;20032;-78
2022/10/15 06:40:41;;;;;;;37.17;21.75;;;14.60;99.90;;;;;;5032524;28;20029;-75
2022/10/15 06:43:09;;;;;;;42.95;23.73;;;14.50;99.90;;;;;;5034260;28;20072;-77
2022/10/15 06:45:41;;;;;;;49.53;25.50;;;14.40;99.90;;;;;;5035613;28;20120;-75
2022/10/15 06:48:07;;;;;;;52.50;25.88;;;14.50;99.90;;;;;;5027181;28;20033;-75
2022/10/15 06:50:35;;;;;;;45.70;25.45;;;14.40;99.90;;;;;;5026529;28;20014;-77
2022/10/15 06:53:01;;;;;;;52.70;26.38;;;14.50;99.90;;;;;;5026373;28;20021;-76
2022/10/15 06:55:27;;;;;;;45.50;25.60;;;14.50;99.90;;;;;;5031066;28;20033;-75
2022/10/15 06:57:56;;;;;;;51.40;26.38;;;14.40;99.90;;;;;;5035915;28;20061;-76
2022/10/15 07:00:25;;;;;;;44.50;25.75;;;14.40;99.90;;;;;;5036716;28;20375;-77
2022/10/15 07:02:51;;;;;;;44.63;24.40;;;14.50;99.90;;;;;;5031921;28;20029;-76
2022/10/15 07:05:17;;;;;;;51.47;26.08;;;14.40;99.90;;;;;;5038483;28;20033;-77
2022/10/15 07:07:53;;;;;;;42.67;23.90;;;14.50;99.90;;;;;;5038166;28;20143;-78
2022/10/15 07:10:20;;;;;;;48.90;25.88;;;14.30;99.90;;;;;;5027446;28;20103;-76
2022/10/15 07:12:46;;;;;;;45.78;26.63;;;14.50;99.90;;;;;;5024204;28;20118;-76
2022/10/15 07:15:12;;;;;;;48.58;26.08;;;14.60;99.90;;;;;;5028013;28;20041;-76
2022/10/15 07:17:38;;;;;;;49.50;25.98;;;14.60;99.90;;;;;;5029145;28;20052;-77
2022/10/15 07:20:05;;;;;;;43.88;23.20;;;14.60;99.90;;;;;;5027286;28;20115;-77
2022/10/15 07:22:30;;;;;;;45.13;24.20;;;14.50;99.90;;;;;;5029851;28;20040;-77
2022/10/15 07:25:00;;;;;;;43.78;24.00;;;14.50;99.90;;;;;;5029861;28;20029;-76
2022/10/15 07:27:26;;;;;;;43.35;22.73;;;14.50;99.90;;;;;;5028487;28;20025;-76
2022/10/15 07:29:52;;;;;;;42.78;23.55;;;14.60;99.90;;;;;;5026342;28;20557;-78
2022/10/15 07:32:17;;;;;;;48.03;25.08;;;14.60;99.90;;;;;;5029213;28;20366;-76
2022/10/15 07:34:43;;;;;;;46.58;24.05;;;14.50;99.90;;;;;;5020277;28;20109;-77
2022/10/15 07:37:11;;;;;;;47.08;24.75;;;14.70;99.90;;;;;;5016596;28;20038;-76
2022/10/15 07:39:41;;;;;;;50.53;24.38;;;14.70;99.90;;;;;;5028682;28;20454;-77
2022/10/15 07:42:07;;;;;;;46.40;24.25;;;14.70;99.90;;;;;;5035252;28;20058;-78
2022/10/15 07:44:32;;;;;;;53.08;24.95;;;14.70;99.90;;;;;;5021621;28;20061;-76
2022/10/15 07:46:58;;;;;;;55.28;24.42;;;14.80;99.90;;;;;;5031368;28;20029;-77
2022/10/15 07:49:26;;;;;;;49.25;24.80;;;14.80;99.90;;;;;;5029754;28;20021;-76
2022/10/15 07:51:52;;;;;;;44.67;22.33;;;14.90;99.90;;;;;;5025045;28;20029;-74
2022/10/15 07:54:20;;;;;;;47.67;23.85;;;15.00;99.90;;;;;;5026086;28;20025;-75
2022/10/15 07:56:45;;;;;;;48.55;23.58;;;15.10;99.90;;;;;;5026017;28;20036;-77
2022/10/15 07:59:13;;;;;;;46.75;23.33;;;15.10;99.90;;;;;;5026935;28;20441;-75
2022/10/15 08:01:41;;;;;;;50.97;23.40;;;15.20;99.90;;;;;;5028123;28;20026;-77
2022/10/15 08:04:09;;;;;;;43.30;23.15;;;15.30;99.90;;;;;;5024284;28;20049;-76
2022/10/15 08:06:37;;;;;;;40.90;22.67;;;15.30;99.90;;;;;;5023902;28;20438;-77
2022/10/15 08:09:06;;;;;;;45.05;23.75;;;15.30;99.90;;;;;;5027607;28;20029;-77
2022/10/15 08:11:32;;;;;;;45.88;24.77;;;15.40;99.90;;;;;;5030109;28;20029;-78
2022/10/15 08:13:57;;;;;;;40.97;23.17;;;15.40;99.90;;;;;;5033546;28;20758;-77
2022/10/15 08:16:23;;;;;;;45.63;23.50;;;15.50;99.90;;;;;;5032128;28;20033;-77
2022/10/15 08:18:49;;;;;;;41.97;22.40;;;15.50;99.90;;;;;;5032263;28;20501;-77
2022/10/15 08:21:17;;;;;;;40.92;21.83;;;15.60;99.90;;;;;;5030854;28;20030;-77
2022/10/15 08:23:46;;;;;;;42.78;22.67;;;15.60;99.90;;;;;;5030368;28;20030;-78
2022/10/15 08:26:14;;;;;;;40.80;22.02;;;15.70;99.90;;;;;;5034158;28;20457;-78
2022/10/15 08:28:39;;;;;;;44.05;24.25;;;15.60;99.90;;;;;;5029220;28;20124;-73
2022/10/15 08:31:08;;;;;;;47.85;24.42;;;15.90;99.90;;;;;;5030531;28;20148;-76
2022/10/15 08:33:35;;;;;;;48.28;26.95;;;16.00;99.90;;;;;;5028435;28;20340;-77
2022/10/15 08:36:01;;;;;;;47.95;25.42;;;16.30;99.90;;;;;;5029817;28;20033;-76
2022/10/15 08:38:27;;;;;;;44.75;24.90;;;16.60;99.90;;;;;;5035391;28;20026;-76
2022/10/15 08:40:54;;;;;;;48.20;26.10;;;16.60;99.90;;;;;;5029747;28;20033;-75
2022/10/15 08:43:39;;;;;;;51.50;26.10;;;16.60;99.90;;;;;;5035426;28;20029;-76
2022/10/15 08:46:12;;;;;;;48.13;26.73;;;16.70;99.90;;;;;;5034003;28;20083;-75
2022/10/15 08:48:46;;;;;;;44.10;24.33;;;17.10;99.90;;;;;;5033351;28;20026;-75
2022/10/15 08:51:22;;;;;;;41.83;23.67;;;18.00;99.90;;;;;;5027858;28;20358;-76
2022/10/15 08:53:55;;;;;;;40.10;22.58;;;18.30;99.90;;;;;;5029823;28;20624;-76
2022/10/15 08:56:32;;;;;;;34.45;20.05;;;19.20;99.90;;;;;;5028797;28;20774;-76
2022/10/15 08:59:11;;;;;;;33.83;19.23;;;19.10;99.90;;;;;;5018208;28;20061;-76
2022/10/15 09:02:05;;;;;;;32.65;19.60;;;18.30;99.90;;;;;;5030296;28;20039;-76
2022/10/15 09:04:54;;;;;;;33.28;18.42;;;17.90;99.90;;;;;;5033112;28;20095;-76
2022/10/15 09:08:04;;;;;;;27.85;18.15;;;17.70;99.90;;;;;;5033281;28;20100;-76
2022/10/15 09:10:46;;;;;;;32.67;17.45;;;17.70;99.90;;;;;;5028374;28;20038;-76
2022/10/15 09:13:36;;;;;;;27.60;17.15;;;17.70;99.90;;;;;;5031853;28;20387;-74
2022/10/15 09:16:24;;;;;;;30.80;18.85;;;18.00;99.90;;;;;;5027512;28;20037;-75
2022/10/15 09:18:54;;;;;;;37.33;21.23;;;18.00;99.90;;;;;;5027048;28;20037;-76
2022/10/15 09:21:26;;;;;;;36.00;22.48;;;18.10;99.90;;;;;;5026837;28;20051;-75
2022/10/15 09:24:00;;;;;;;40.22;22.85;;;18.20;99.90;;;;;;5030861;28;20324;-74
2022/10/15 09:26:31;;;;;;;39.88;23.08;;;18.20;99.90;;;;;;5032936;28;20034;-74
2022/10/15 09:29:24;;;;;;;38.35;20.13;;;18.30;99.90;;;;;;5027726;28;20029;-75
2022/10/15 09:32:18;;;;;;;29.17;17.98;;;18.60;99.90;;;;;;5031956;28;20028;-76
2022/10/15 09:34:48;;;;;;;;;;;19.10;99.90;;;;;;5030136;28;20029;-76
2022/10/15 09:37:37;;;;;;;20.83;14.10;;;19.60;99.90;;;;;;5030099;28;19966;-75
2022/10/15 09:40:29;;;;;;;129.00;67.47;;;19.90;99.90;;;;;;5028811;28;20102;-76
2022/10/15 09:42:59;;;;;;;16.33;11.30;;;19.90;99.90;;;;;;5028456;28;20028;-76
2022/10/15 09:45:25;;;;;;;18.52;11.40;;;19.70;99.90;;;;;;5042679;28;20467;-76
2022/10/15 09:47:59;;;;;;;18.15;11.43;;;19.80;99.90;;;;;;5032054;28;20024;-76
2022/10/15 09:50:42;;;;;;;16.38;10.98;;;20.10;99.90;;;;;;5029201;28;20021;-75
2022/10/15 09:53:39;;;;;;;17.02;10.73;;;20.00;99.90;;;;;;5026549;28;20074;-76
2022/10/15 09:56:17;;;;;;;17.73;9.35;;;19.50;99.90;;;;;;5031766;28;20029;-76
2022/10/15 09:58:53;;;;;;;12.77;9.23;;;19.00;99.90;;;;;;5032524;28;20025;-72
2022/10/15 10:01:23;;;;;;;13.65;9.90;;;18.90;99.90;;;;;;5031913;28;20395;-75
2022/10/15 10:04:09;;;;;;;11.00;8.43;;;18.90;99.90;;;;;;5030049;28;20030;-76
2022/10/15 10:06:50;;;;;;;15.35;7.88;;;18.70;99.90;;;;;;5018061;28;20033;-74
2022/10/15 10:09:50;;;;;;;8.68;7.38;;;18.60;99.90;;;;;;5027657;28;20039;-77
2022/10/15 10:12:19;;;;;;;9.27;7.40;;;18.50;99.90;;;;;;5031197;28;20104;-76
2022/10/15 10:14:52;;;;;;;12.13;7.22;;;18.40;99.90;;;;;;5028699;28;20032;-76
2022/10/15 10:17:20;;;;;;;11.10;6.65;;;18.30;99.90;;;;;;5027583;28;20049;-74
2022/10/15 10:20:08;;;;;;;7.25;5.32;;;18.20;99.90;;;;;;5030781;28;20744;-77
2022/10/15 10:22:51;;;;;;;5.28;4.65;;;18.10;99.90;;;;;;5034114;28;20116;-76
2022/10/15 10:25:28;;;;;;;6.00;4.55;;;18.10;99.90;;;;;;5030747;28;20036;-74
2022/10/15 10:28:24;;;;;;;6.63;4.97;;;17.90;99.90;;;;;;5029957;28;20022;-76
2022/10/15 10:30:53;;;;;;;6.30;5.32;;;18.00;99.90;;;;;;5024835;28;20045;-76
2022/10/15 10:33:27;;;;;;;7.75;5.00;;;17.90;99.90;;;;;;5031650;28;20347;-75
2022/10/15 10:35:53;;;;;;;10.05;4.70;;;17.90;99.90;;;;;;5028185;28;20457;-77
2022/10/15 10:38:28;;;;;;;6.50;4.30;;;17.90;99.90;;;;;;5029981;28;20051;-72
2022/10/15 10:41:09;;;;;;;8.25;3.90;;;17.90;99.90;;;;;;5030924;28;20495;-77
2022/10/15 10:43:39;;;;;;;5.50;3.72;;;17.80;99.90;;;;;;5028958;28;20434;-75
2022/10/15 10:46:14;;;;;;;5.15;3.40;;;17.80;99.90;;;;;;5027819;28;20044;-74
2022/10/15 10:48:41;;;;;;;5.35;3.47;;;17.80;99.90;;;;;;5030078;28;20107;-74
2022/10/15 10:51:15;;;;;;;5.00;4.03;;;17.80;99.90;;;;;;5030212;28;20369;-75
2022/10/15 10:53:50;;;;;;;8.48;4.80;;;17.80;99.90;;;;;;5027374;28;20040;-77
2022/10/15 10:56:20;;;;;;;6.95;4.22;;;17.70;99.90;;;;;;5028091;28;20043;-75
2022/10/15 10:58:53;;;;;;;6.40;4.60;;;17.60;99.90;;;;;;5028881;28;20025;-76
2022/10/15 11:01:19;;;;;;;5.75;4.63;;;17.70;99.90;;;;;;5031727;28;20078;-77
2022/10/15 11:03:49;;;;;;;8.05;4.40;;;17.60;99.90;;;;;;5027799;28;20033;-72
2022/10/15 11:06:45;;;;;;;8.98;5.18;;;17.60;99.90;;;;;;5026156;28;20132;-74
2022/10/15 11:09:22;;;;;;;5.85;4.30;;;17.60;99.90;;;;;;5031092;28;20021;-76
2022/10/15 11:12:15;;;;;;;7.05;4.55;;;17.50;99.90;;;;;;5019945;28;20084;-76
2022/10/15 11:15:07;;;;;;;;;;;17.50;99.90;;;;;;5033106;28;20029;-75
2022/10/15 11:17:56;;;;;;;8.77;4.78;;;17.40;99.90;;;;;;5030215;28;20245;-76
2022/10/15 11:20:45;;;;;;;8.45;4.60;;;17.40;99.90;;;;;;5039972;28;20100;-76
2022/10/15 11:23:25;;;;;;;7.75;4.97;;;17.40;99.90;;;;;;5031926;28;20022;-76
2022/10/15 11:26:19;;;;;;;5.85;5.15;;;17.30;99.90;;;;;;5029943;28;20035;-75
2022/10/15 11:29:03;;;;;;;8.82;4.75;;;17.40;99.90;;;;;;5027322;28;20025;-75
2022/10/15 11:31:58;;;;;;;5.57;4.85;;;17.30;99.90;;;;;;5024052;28;20018;-76
2022/10/15 11:34:53;;;;;;;5.68;4.47;;;17.30;99.90;;;;;;5029803;28;20160;-75
2022/10/15 11:37:22;;;;;;;4.60;3.95;;;17.40;99.90;;;;;;5030427;28;20021;-76
2022/10/15 11:40:08;;;;;;;4.35;3.75;;;17.30;99.90;;;;;;5028298;28;20017;-76
2022/10/15 11:42:58;;;;;;;4.43;4.10;;;17.40;99.90;;;;;;5028895;28;20422;-75
2022/10/15 11:45:29;;;;;;;5.43;4.00;;;17.40;99.90;;;;;;5033480;28;20362;-74
2022/10/15 11:48:16;;;;;;;4.22;3.85;;;17.60;99.90;;;;;;5031967;28;20029;-76
2022/10/15 11:51:01;;;;;;;6.28;3.67;;;17.70;99.90;;;;;;5029597;28;20021;-75
2022/10/15 11:53:44;;;;;;;4.72;3.40;;;17.80;99.90;;;;;;5032418;28;20022;-76
2022/10/15 11:56:13;;;;;;;4.50;3.33;;;17.90;99.90;;;;;;5029268;28;20030;-75
2022/10/15 11:58:44;;;;;;;3.65;3.10;;;17.90;99.90;;;;;;5034897;28;20037;-75
2022/10/15 12:01:13;;;;;;;5.40;4.57;;;17.80;99.90;;;;;;5038643;28;20029;-76
2022/10/15 12:03:57;;;;;;;4.78;3.75;;;17.70;99.90;;;;;;5036991;28;20040;-75
2022/10/15 12:06:31;;;;;;;4.28;3.85;;;17.60;99.90;;;;;;5035149;28;20354;-77
2022/10/15 12:08:59;;;;;;;4.63;3.92;;;17.70;99.90;;;;;;5031772;28;20053;-73
2022/10/15 12:11:36;;;;;;;7.05;3.03;;;17.60;99.90;;;;;;5032442;28;20026;-74
2022/10/15 12:14:06;;;;;;;4.80;3.58;;;17.50;99.90;;;;;;5031614;28;20029;-78
2022/10/15 12:16:49;;;;;;;3.63;2.80;;;17.60;99.90;;;;;;5033676;28;20092;-77
2022/10/15 12:19:16;;;;;;;5.22;3.03;;;17.70;99.90;;;;;;5033141;28;20060;-75
2022/10/15 12:21:53;;;;;;;3.35;2.97;;;17.70;99.90;;;;;;5030187;28;20036;-74
2022/10/15 12:24:43;;;;;;;3.22;2.95;;;17.80;99.90;;;;;;5030819;28;20031;-74
2022/10/15 12:27:33;;;;;;;5.82;3.47;;;17.90;99.90;;;;;;5029046;28;20022;-77
2022/10/15 12:29:59;;;;;;;3.53;3.22;;;17.80;99.90;;;;;;5032620;28;20761;-72
2022/10/15 12:32:50;;;;;;;3.03;2.72;;;17.90;99.90;;;;;;5033269;28;20024;-74
2022/10/15 12:35:21;;;;;;;6.32;3.22;;;18.00;99.90;;;;;;5035004;28;20037;-73
2022/10/15 12:37:48;;;;;;;5.65;2.35;;;18.00;99.90;;;;;;5034931;28;20151;-77
2022/10/15 12:40:20;;;;;;;3.78;2.55;;;17.90;99.90;;;;;;5028907;28;20400;-76
2022/10/15 12:42:51;;;;;;;5.78;3.33;;;17.90;99.90;;;;;;5031673;28;20030;-77
2022/10/15 12:45:33;;;;;;;8.13;3.75;;;18.00;99.90;;;;;;5033994;28;20035;-75
2022/10/15 12:48:05;;;;;;;3.65;2.13;;;18.10;99.90;;;;;;5031139;28;20473;-78
2022/10/15 12:50:37;;;;;;;2.67;2.40;;;18.20;99.90;;;;;;5036225;28;20022;-76
2022/10/15 12:53:28;;;;;;;7.50;2.13;;;18.30;99.90;;;;;;5031459;28;20022;-77
2022/10/15 12:56:16;;;;;;;6.22;2.40;;;18.50;99.90;;;;;;5033236;28;20037;-76